sensor_id;sensor_type;location;lat;lon;timestamp;temperature;humidity
60469;DHT22;46316;47.582;10.238;2022-09-09T00:02:22;14.40;86.10
60469;DHT22;46316;47.582;10.238;2022-09-09T00:04:59;14.40;85.80
60469;DHT22;46316;47.582;10.238;2022-09-09T00:08:00;14.40;85.80
60469;DHT22;46316;47.582;10.238;2022-09-09T00:15:40;14.40;86.20
60469;DHT22;46316;47.582;10.238;2022-09-09T00:18:18;14.40;86.10
60469;DHT22;46316;47.582;10.238;2022-09-09T00:21:05;14.40;85.90
60469;DHT22;46316;47.582;10.238;2022-09-09T00:23:38;14.30;85.70
60469;DHT22;46316;47.582;10.238;2022-09-09T00:31:43;14.30;86.10
60469;DHT22;46316;47.582;10.238;2022-09-09T00:34:13;14.20;86.10
60469;DHT22;46316;47.582;10.238;2022-09-09T00:36:40;14.20;86.10
60469;DHT22;46316;47.582;10.238;2022-09-09T00:39:23;14.10;86.10
60469;DHT22;46316;47.582;10.238;2022-09-09T00:44:36;14.20;85.90
60469;DHT22;46316;47.582;10.238;2022-09-09T00:49:55;14.10;86.10
60469;DHT22;46316;47.582;10.238;2022-09-09T00:52:41;14.10;85.80
60469;DHT22;46316;47.582;10.238;2022-09-09T00:57:42;14.10;85.70
60469;DHT22;46316;47.582;10.238;2022-09-09T01:01:03;14.00;85.70
60469;DHT22;46316;47.582;10.238;2022-09-09T01:06:29;13.90;86.00
60469;DHT22;46316;47.582;10.238;2022-09-09T01:09:57;13.90;85.90
60469;DHT22;46316;47.582;10.238;2022-09-09T01:12:16;13.90;86.20
60469;DHT22;46316;47.582;10.238;2022-09-09T01:14:47;13.80;86.50
60469;DHT22;46316;47.582;10.238;2022-09-09T01:20:24;13.80;86.50
60469;DHT22;46316;47.582;10.238;2022-09-09T01:28:29;13.90;86.40
60469;DHT22;46316;47.582;10.238;2022-09-09T01:30:57;13.90;86.40
60469;DHT22;46316;47.582;10.238;2022-09-09T01:33:24;13.90;86.60
60469;DHT22;46316;47.582;10.238;2022-09-09T01:38:35;13.90;86.60
60469;DHT22;46316;47.582;10.238;2022-09-09T01:41:01;13.80;86.50
60469;DHT22;46316;47.582;10.238;2022-09-09T01:43:28;13.80;86.70
60469;DHT22;46316;47.582;10.238;2022-09-09T01:45:56;13.70;86.50
60469;DHT22;46316;47.582;10.238;2022-09-09T01:48:25;13.80;86.50
60469;DHT22;46316;47.582;10.238;2022-09-09T01:50:51;13.70;86.30
60469;DHT22;46316;47.582;10.238;2022-09-09T01:53:18;13.70;86.70
60469;DHT22;46316;47.582;10.238;2022-09-09T01:58:28;13.60;86.60
60469;DHT22;46316;47.582;10.238;2022-09-09T02:03:34;13.50;86.50
60469;DHT22;46316;47.582;10.238;2022-09-09T02:06:34;13.50;86.50
60469;DHT22;46316;47.582;10.238;2022-09-09T02:09:03;13.50;86.30
60469;DHT22;46316;47.582;10.238;2022-09-09T02:11:30;13.50;86.20
60469;DHT22;46316;47.582;10.238;2022-09-09T02:14:13;13.50;86.30
60469;DHT22;46316;47.582;10.238;2022-09-09T02:16:50;13.50;86.50
60469;DHT22;46316;47.582;10.238;2022-09-09T02:21:53;13.50;86.60
60469;DHT22;46316;47.582;10.238;2022-09-09T02:24:20;13.50;86.70
60469;DHT22;46316;47.582;10.238;2022-09-09T02:26:49;13.50;86.40
60469;DHT22;46316;47.582;10.238;2022-09-09T02:29:19;13.50;86.40
60469;DHT22;46316;47.582;10.238;2022-09-09T02:31:46;13.50;86.40
60469;DHT22;46316;47.582;10.238;2022-09-09T02:34:14;13.40;86.30
60469;DHT22;46316;47.582;10.238;2022-09-09T02:36:42;13.50;86.30
60469;DHT22;46316;47.582;10.238;2022-09-09T02:39:10;13.40;86.50
60469;DHT22;46316;47.582;10.238;2022-09-09T02:41:41;13.40;86.90
60469;DHT22;46316;47.582;10.238;2022-09-09T02:44:17;13.40;87.00
60469;DHT22;46316;47.582;10.238;2022-09-09T02:52:33;13.40;87.40
60469;DHT22;46316;47.582;10.238;2022-09-09T02:55:09;13.40;87.40
60469;DHT22;46316;47.582;10.238;2022-09-09T02:57:37;13.40;87.70
60469;DHT22;46316;47.582;10.238;2022-09-09T03:00:04;13.40;87.90
60469;DHT22;46316;47.582;10.238;2022-09-09T03:02:30;13.40;87.70
60469;DHT22;46316;47.582;10.238;2022-09-09T03:04:56;13.40;87.80
60469;DHT22;46316;47.582;10.238;2022-09-09T03:07:21;13.30;87.60
60469;DHT22;46316;47.582;10.238;2022-09-09T03:09:47;13.30;87.60
60469;DHT22;46316;47.582;10.238;2022-09-09T03:12:14;13.30;88.00
60469;DHT22;46316;47.582;10.238;2022-09-09T03:14:40;13.30;88.10
60469;DHT22;46316;47.582;10.238;2022-09-09T03:17:05;13.20;88.10
60469;DHT22;46316;47.582;10.238;2022-09-09T03:19:31;13.20;87.60
60469;DHT22;46316;47.582;10.238;2022-09-09T03:21:57;13.10;87.80
60469;DHT22;46316;47.582;10.238;2022-09-09T03:24:24;13.10;87.80
60469;DHT22;46316;47.582;10.238;2022-09-09T03:26:49;13.00;87.70
60469;DHT22;46316;47.582;10.238;2022-09-09T03:29:16;13.00;87.60
60469;DHT22;46316;47.582;10.238;2022-09-09T03:31:43;12.90;87.60
60469;DHT22;46316;47.582;10.238;2022-09-09T03:34:09;12.90;87.50
60469;DHT22;46316;47.582;10.238;2022-09-09T03:36:34;12.90;87.70
60469;DHT22;46316;47.582;10.238;2022-09-09T03:39:00;12.90;87.90
60469;DHT22;46316;47.582;10.238;2022-09-09T03:41:28;12.90;87.90
60469;DHT22;46316;47.582;10.238;2022-09-09T03:43:54;13.00;88.00
60469;DHT22;46316;47.582;10.238;2022-09-09T03:46:21;13.00;88.20
60469;DHT22;46316;47.582;10.238;2022-09-09T03:48:47;13.00;88.40
60469;DHT22;46316;47.582;10.238;2022-09-09T03:51:13;13.10;88.40
60469;DHT22;46316;47.582;10.238;2022-09-09T03:53:38;13.10;88.20
60469;DHT22;46316;47.582;10.238;2022-09-09T03:56:05;13.10;88.10
60469;DHT22;46316;47.582;10.238;2022-09-09T03:58:35;13.10;88.20
60469;DHT22;46316;47.582;10.238;2022-09-09T04:01:12;13.20;88.20
60469;DHT22;46316;47.582;10.238;2022-09-09T04:03:39;13.20;88.10
60469;DHT22;46316;47.582;10.238;2022-09-09T04:06:06;13.30;88.00
60469;DHT22;46316;47.582;10.238;2022-09-09T04:08:33;13.30;87.80
60469;DHT22;46316;47.582;10.238;2022-09-09T04:11:00;13.40;87.60
60469;DHT22;46316;47.582;10.238;2022-09-09T04:13:27;13.40;87.20
60469;DHT22;46316;47.582;10.238;2022-09-09T04:15:55;13.40;87.10
60469;DHT22;46316;47.582;10.238;2022-09-09T04:18:21;13.40;87.40
60469;DHT22;46316;47.582;10.238;2022-09-09T04:20:51;13.40;87.50
60469;DHT22;46316;47.582;10.238;2022-09-09T04:23:17;13.40;87.50
60469;DHT22;46316;47.582;10.238;2022-09-09T04:25:48;13.50;87.30
60469;DHT22;46316;47.582;10.238;2022-09-09T04:28:14;13.50;87.30
60469;DHT22;46316;47.582;10.238;2022-09-09T04:30:41;13.50;87.30
60469;DHT22;46316;47.582;10.238;2022-09-09T04:33:08;13.60;87.40
60469;DHT22;46316;47.582;10.238;2022-09-09T04:35:34;13.60;87.40
60469;DHT22;46316;47.582;10.238;2022-09-09T04:38:00;13.70;87.50
60469;DHT22;46316;47.582;10.238;2022-09-09T04:40:28;13.70;87.40
60469;DHT22;46316;47.582;10.238;2022-09-09T04:42:55;13.80;87.40
60469;DHT22;46316;47.582;10.238;2022-09-09T04:45:20;13.80;87.10
60469;DHT22;46316;47.582;10.238;2022-09-09T04:47:47;13.80;87.00
60469;DHT22;46316;47.582;10.238;2022-09-09T04:50:12;13.80;86.70
60469;DHT22;46316;47.582;10.238;2022-09-09T04:52:38;13.90;86.30
60469;DHT22;46316;47.582;10.238;2022-09-09T04:55:04;13.90;86.20
60469;DHT22;46316;47.582;10.238;2022-09-09T04:57:29;13.90;85.20
60469;DHT22;46316;47.582;10.238;2022-09-09T04:59:59;13.90;84.10
60469;DHT22;46316;47.582;10.238;2022-09-09T05:02:25;14.00;83.40
60469;DHT22;46316;47.582;10.238;2022-09-09T05:04:51;14.10;83.10
60469;DHT22;46316;47.582;10.238;2022-09-09T05:07:17;14.20;82.50
60469;DHT22;46316;47.582;10.238;2022-09-09T05:09:42;14.20;82.30
60469;DHT22;46316;47.582;10.238;2022-09-09T05:12:08;14.30;81.90
60469;DHT22;46316;47.582;10.238;2022-09-09T05:14:33;14.40;81.70
60469;DHT22;46316;47.582;10.238;2022-09-09T05:17:02;14.40;81.60
60469;DHT22;46316;47.582;10.238;2022-09-09T05:19:27;14.50;81.10
60469;DHT22;46316;47.582;10.238;2022-09-09T05:21:53;14.60;81.20
60469;DHT22;46316;47.582;10.238;2022-09-09T05:24:18;14.60;80.80
60469;DHT22;46316;47.582;10.238;2022-09-09T05:26:44;14.70;80.60
60469;DHT22;46316;47.582;10.238;2022-09-09T05:29:09;14.80;80.60
60469;DHT22;46316;47.582;10.238;2022-09-09T05:31:35;14.90;80.50
60469;DHT22;46316;47.582;10.238;2022-09-09T05:34:01;14.90;79.90
60469;DHT22;46316;47.582;10.238;2022-09-09T05:36:26;14.90;79.40
60469;DHT22;46316;47.582;10.238;2022-09-09T05:38:52;15.00;78.90
60469;DHT22;46316;47.582;10.238;2022-09-09T05:41:19;15.00;78.20
60469;DHT22;46316;47.582;10.238;2022-09-09T05:43:46;15.00;78.10
60469;DHT22;46316;47.582;10.238;2022-09-09T05:46:19;15.10;77.90
60469;DHT22;46316;47.582;10.238;2022-09-09T05:48:47;15.10;78.10
60469;DHT22;46316;47.582;10.238;2022-09-09T05:51:19;15.10;78.40
60469;DHT22;46316;47.582;10.238;2022-09-09T05:53:46;15.00;78.20
60469;DHT22;46316;47.582;10.238;2022-09-09T05:58:43;15.00;78.10
60469;DHT22;46316;47.582;10.238;2022-09-09T06:01:16;15.10;77.80
60469;DHT22;46316;47.582;10.238;2022-09-09T06:03:44;15.10;78.00
60469;DHT22;46316;47.582;10.238;2022-09-09T06:06:15;15.10;78.30
60469;DHT22;46316;47.582;10.238;2022-09-09T06:08:44;15.10;78.80
60469;DHT22;46316;47.582;10.238;2022-09-09T06:11:17;15.10;79.80
60469;DHT22;46316;47.582;10.238;2022-09-09T06:13:43;15.10;78.90
60469;DHT22;46316;47.582;10.238;2022-09-09T06:16:10;15.10;79.30
60469;DHT22;46316;47.582;10.238;2022-09-09T06:18:37;15.20;79.70
60469;DHT22;46316;47.582;10.238;2022-09-09T06:21:05;15.20;79.30
60469;DHT22;46316;47.582;10.238;2022-09-09T06:23:33;15.20;79.10
60469;DHT22;46316;47.582;10.238;2022-09-09T06:26:07;15.30;79.20
60469;DHT22;46316;47.582;10.238;2022-09-09T06:28:33;15.30;79.40
60469;DHT22;46316;47.582;10.238;2022-09-09T06:31:00;15.30;79.20
60469;DHT22;46316;47.582;10.238;2022-09-09T06:33:30;15.40;79.30
60469;DHT22;46316;47.582;10.238;2022-09-09T06:35:55;15.40;79.30
60469;DHT22;46316;47.582;10.238;2022-09-09T06:38:22;15.50;78.30
60469;DHT22;46316;47.582;10.238;2022-09-09T06:40:55;15.60;78.00
60469;DHT22;46316;47.582;10.238;2022-09-09T06:43:22;15.60;78.20
60469;DHT22;46316;47.582;10.238;2022-09-09T06:45:59;15.70;78.50
60469;DHT22;46316;47.582;10.238;2022-09-09T06:48:25;15.80;77.70
60469;DHT22;46316;47.582;10.238;2022-09-09T06:51:06;15.90;77.50
60469;DHT22;46316;47.582;10.238;2022-09-09T06:53:34;16.10;76.30
60469;DHT22;46316;47.582;10.238;2022-09-09T06:56:26;16.20;76.70
60469;DHT22;46316;47.582;10.238;2022-09-09T06:58:55;16.40;76.70
60469;DHT22;46316;47.582;10.238;2022-09-09T07:01:23;16.50;75.90
60469;DHT22;46316;47.582;10.238;2022-09-09T07:03:51;16.70;74.70
60469;DHT22;46316;47.582;10.238;2022-09-09T07:06:20;16.70;74.80
60469;DHT22;46316;47.582;10.238;2022-09-09T07:08:56;16.90;74.90
60469;DHT22;46316;47.582;10.238;2022-09-09T07:11:26;16.90;75.10
60469;DHT22;46316;47.582;10.238;2022-09-09T07:13:53;17.00;74.40
60469;DHT22;46316;47.582;10.238;2022-09-09T07:16:20;17.00;74.20
60469;DHT22;46316;47.582;10.238;2022-09-09T07:18:46;17.10;73.90
60469;DHT22;46316;47.582;10.238;2022-09-09T07:21:13;17.10;74.60
60469;DHT22;46316;47.582;10.238;2022-09-09T07:23:40;17.20;73.40
60469;DHT22;46316;47.582;10.238;2022-09-09T07:26:11;17.20;73.70
60469;DHT22;46316;47.582;10.238;2022-09-09T07:28:37;17.30;74.80
60469;DHT22;46316;47.582;10.238;2022-09-09T07:31:05;17.30;73.00
60469;DHT22;46316;47.582;10.238;2022-09-09T07:33:32;17.40;73.00
60469;DHT22;46316;47.582;10.238;2022-09-09T07:36:33;17.40;72.70
60469;DHT22;46316;47.582;10.238;2022-09-09T07:39:02;17.40;72.00
60469;DHT22;46316;47.582;10.238;2022-09-09T07:41:42;17.40;72.10
60469;DHT22;46316;47.582;10.238;2022-09-09T07:44:08;17.40;72.40
60469;DHT22;46316;47.582;10.238;2022-09-09T07:46:35;17.40;71.90
60469;DHT22;46316;47.582;10.238;2022-09-09T07:49:01;17.40;72.20
60469;DHT22;46316;47.582;10.238;2022-09-09T07:51:33;17.30;72.10
60469;DHT22;46316;47.582;10.238;2022-09-09T07:54:01;17.30;71.20
60469;DHT22;46316;47.582;10.238;2022-09-09T07:56:29;17.30;70.70
60469;DHT22;46316;47.582;10.238;2022-09-09T07:58:55;17.30;70.60
60469;DHT22;46316;47.582;10.238;2022-09-09T08:04:04;17.30;71.20
60469;DHT22;46316;47.582;10.238;2022-09-09T08:06:32;17.30;70.80
60469;DHT22;46316;47.582;10.238;2022-09-09T08:08:59;17.20;71.10
60469;DHT22;46316;47.582;10.238;2022-09-09T08:11:27;17.10;71.10
60469;DHT22;46316;47.582;10.238;2022-09-09T08:13:53;17.00;71.40
60469;DHT22;46316;47.582;10.238;2022-09-09T08:16:22;16.90;71.40
60469;DHT22;46316;47.582;10.238;2022-09-09T08:18:49;16.90;72.60
60469;DHT22;46316;47.582;10.238;2022-09-09T08:21:23;16.90;72.80
60469;DHT22;46316;47.582;10.238;2022-09-09T08:23:51;16.90;72.90
60469;DHT22;46316;47.582;10.238;2022-09-09T08:26:19;16.70;73.80
60469;DHT22;46316;47.582;10.238;2022-09-09T08:28:50;16.60;74.70
60469;DHT22;46316;47.582;10.238;2022-09-09T08:31:20;16.50;76.00
60469;DHT22;46316;47.582;10.238;2022-09-09T08:33:46;16.40;78.00
60469;DHT22;46316;47.582;10.238;2022-09-09T08:36:15;16.10;79.10
60469;DHT22;46316;47.582;10.238;2022-09-09T08:38:42;15.90;81.50
60469;DHT22;46316;47.582;10.238;2022-09-09T08:41:23;15.80;81.60
60469;DHT22;46316;47.582;10.238;2022-09-09T08:44:01;15.60;82.50
60469;DHT22;46316;47.582;10.238;2022-09-09T08:46:38;15.60;82.80
60469;DHT22;46316;47.582;10.238;2022-09-09T08:51:42;15.70;83.20
60469;DHT22;46316;47.582;10.238;2022-09-09T08:54:09;15.70;83.00
60469;DHT22;46316;47.582;10.238;2022-09-09T08:56:35;15.80;82.20
60469;DHT22;46316;47.582;10.238;2022-09-09T08:59:02;15.80;82.70
60469;DHT22;46316;47.582;10.238;2022-09-09T09:01:50;15.80;82.50
60469;DHT22;46316;47.582;10.238;2022-09-09T09:07:15;15.90;83.80
60469;DHT22;46316;47.582;10.238;2022-09-09T09:12:32;15.90;82.10
60469;DHT22;46316;47.582;10.238;2022-09-09T09:15:00;15.90;82.20
60469;DHT22;46316;47.582;10.238;2022-09-09T09:17:28;15.90;82.70
60469;DHT22;46316;47.582;10.238;2022-09-09T09:19:57;15.90;83.00
60469;DHT22;46316;47.582;10.238;2022-09-09T09:22:32;15.90;83.70
60469;DHT22;46316;47.582;10.238;2022-09-09T09:25:20;15.90;83.40
60469;DHT22;46316;47.582;10.238;2022-09-09T09:27:49;15.80;83.20
60469;DHT22;46316;47.582;10.238;2022-09-09T09:30:20;15.90;83.70
60469;DHT22;46316;47.582;10.238;2022-09-09T09:33:02;15.80;83.40
60469;DHT22;46316;47.582;10.238;2022-09-09T09:35:30;15.90;83.90
60469;DHT22;46316;47.582;10.238;2022-09-09T09:37:56;15.80;84.10
60469;DHT22;46316;47.582;10.238;2022-09-09T09:40:22;15.90;84.10
60469;DHT22;46316;47.582;10.238;2022-09-09T09:43:02;15.90;84.20
60469;DHT22;46316;47.582;10.238;2022-09-09T09:45:40;15.90;83.60
60469;DHT22;46316;47.582;10.238;2022-09-09T09:48:10;16.00;83.70
60469;DHT22;46316;47.582;10.238;2022-09-09T09:50:48;16.00;83.50
60469;DHT22;46316;47.582;10.238;2022-09-09T09:56:12;16.10;83.90
60469;DHT22;46316;47.582;10.238;2022-09-09T10:03:54;16.30;82.50
60469;DHT22;46316;47.582;10.238;2022-09-09T10:06:31;16.40;82.60
60469;DHT22;46316;47.582;10.238;2022-09-09T10:08:59;16.40;81.20
60469;DHT22;46316;47.582;10.238;2022-09-09T10:11:35;16.50;81.30
60469;DHT22;46316;47.582;10.238;2022-09-09T10:14:22;16.50;80.80
60469;DHT22;46316;47.582;10.238;2022-09-09T10:20:19;16.60;79.80
60469;DHT22;46316;47.582;10.238;2022-09-09T10:22:54;16.60;80.40
60469;DHT22;46316;47.582;10.238;2022-09-09T10:25:27;16.60;80.10
60469;DHT22;46316;47.582;10.238;2022-09-09T10:28:30;16.60;79.50
60469;DHT22;46316;47.582;10.238;2022-09-09T10:36:24;16.80;80.40
60469;DHT22;46316;47.582;10.238;2022-09-09T10:39:05;16.80;79.20
60469;DHT22;46316;47.582;10.238;2022-09-09T10:41:42;16.90;79.40
60469;DHT22;46316;47.582;10.238;2022-09-09T10:55:17;16.90;78.40
60469;DHT22;46316;47.582;10.238;2022-09-09T10:57:56;17.00;78.70
60469;DHT22;46316;47.582;10.238;2022-09-09T11:00:45;17.10;78.60
60469;DHT22;46316;47.582;10.238;2022-09-09T11:03:20;17.20;79.80
60469;DHT22;46316;47.582;10.238;2022-09-09T11:05:55;17.30;79.40
60469;DHT22;46316;47.582;10.238;2022-09-09T11:08:28;17.40;80.20
60469;DHT22;46316;47.582;10.238;2022-09-09T11:11:04;17.50;80.40
60469;DHT22;46316;47.582;10.238;2022-09-09T11:18:41;18.20;76.10
60469;DHT22;46316;47.582;10.238;2022-09-09T11:21:28;18.40;75.80
60469;DHT22;46316;47.582;10.238;2022-09-09T11:24:02;18.70;73.60
60469;DHT22;46316;47.582;10.238;2022-09-09T11:27:01;18.90;72.00
60469;DHT22;46316;47.582;10.238;2022-09-09T11:32:27;18.80;71.40
60469;DHT22;46316;47.582;10.238;2022-09-09T11:38:19;18.70;73.40
60469;DHT22;46316;47.582;10.238;2022-09-09T11:40:47;18.60;72.70
60469;DHT22;46316;47.582;10.238;2022-09-09T11:46:10;18.60;72.00
60469;DHT22;46316;47.582;10.238;2022-09-09T11:48:59;18.60;72.20
60469;DHT22;46316;47.582;10.238;2022-09-09T11:51:27;18.50;71.00
60469;DHT22;46316;47.582;10.238;2022-09-09T11:54:02;18.60;70.80
60469;DHT22;46316;47.582;10.238;2022-09-09T11:56:44;18.50;70.90
60469;DHT22;46316;47.582;10.238;2022-09-09T11:59:21;18.60;70.80
60469;DHT22;46316;47.582;10.238;2022-09-09T12:04:30;18.40;70.60
60469;DHT22;46316;47.582;10.238;2022-09-09T12:07:03;18.30;71.50
60469;DHT22;46316;47.582;10.238;2022-09-09T12:14:38;18.30;69.30
60469;DHT22;46316;47.582;10.238;2022-09-09T12:17:18;18.60;70.00
60469;DHT22;46316;47.582;10.238;2022-09-09T12:19:44;19.00;68.10
60469;DHT22;46316;47.582;10.238;2022-09-09T12:22:17;19.40;64.70
60469;DHT22;46316;47.582;10.238;2022-09-09T12:24:49;19.20;64.50
60469;DHT22;46316;47.582;10.238;2022-09-09T12:27:30;19.20;64.20
60469;DHT22;46316;47.582;10.238;2022-09-09T12:30:02;19.30;63.10
60469;DHT22;46316;47.582;10.238;2022-09-09T12:32:29;19.20;63.40
60469;DHT22;46316;47.582;10.238;2022-09-09T12:35:03;19.30;62.10
60469;DHT22;46316;47.582;10.238;2022-09-09T12:37:37;19.30;63.10
60469;DHT22;46316;47.582;10.238;2022-09-09T12:42:44;19.20;65.30
60469;DHT22;46316;47.582;10.238;2022-09-09T12:45:27;19.20;64.40
60469;DHT22;46316;47.582;10.238;2022-09-09T12:47:59;18.90;64.00
60469;DHT22;46316;47.582;10.238;2022-09-09T12:50:30;18.70;66.00
60469;DHT22;46316;47.582;10.238;2022-09-09T12:53:01;18.40;66.30
60469;DHT22;46316;47.582;10.238;2022-09-09T12:55:35;18.40;66.70
60469;DHT22;46316;47.582;10.238;2022-09-09T12:58:02;18.30;67.80
60469;DHT22;46316;47.582;10.238;2022-09-09T13:00:35;18.10;69.40
60469;DHT22;46316;47.582;10.238;2022-09-09T13:03:13;17.90;70.30
60469;DHT22;46316;47.582;10.238;2022-09-09T13:05:40;17.70;72.50
60469;DHT22;46316;47.582;10.238;2022-09-09T13:08:10;17.50;73.20
60469;DHT22;46316;47.582;10.238;2022-09-09T13:10:58;17.30;74.20
60469;DHT22;46316;47.582;10.238;2022-09-09T13:13:27;17.10;74.20
60469;DHT22;46316;47.582;10.238;2022-09-09T13:15:57;16.90;71.10
60469;DHT22;46316;47.582;10.238;2022-09-09T13:18:28;16.90;72.50
60469;DHT22;46316;47.582;10.238;2022-09-09T13:20:54;16.90;75.80
60469;DHT22;46316;47.582;10.238;2022-09-09T13:23:21;16.90;77.30
60469;DHT22;46316;47.582;10.238;2022-09-09T13:25:56;16.90;75.90
60469;DHT22;46316;47.582;10.238;2022-09-09T13:28:24;16.90;76.20
60469;DHT22;46316;47.582;10.238;2022-09-09T13:33:29;17.10;74.30
60469;DHT22;46316;47.582;10.238;2022-09-09T13:36:07;17.10;75.20
60469;DHT22;46316;47.582;10.238;2022-09-09T13:38:58;17.20;76.70
60469;DHT22;46316;47.582;10.238;2022-09-09T13:41:42;17.30;76.00
60469;DHT22;46316;47.582;10.238;2022-09-09T13:44:27;17.40;75.00
60469;DHT22;46316;47.582;10.238;2022-09-09T13:49:29;18.00;72.70
60469;DHT22;46316;47.582;10.238;2022-09-09T13:52:12;18.40;72.50
60469;DHT22;46316;47.582;10.238;2022-09-09T13:54:39;18.50;70.80
60469;DHT22;46316;47.582;10.238;2022-09-09T13:57:05;18.80;69.10
60469;DHT22;46316;47.582;10.238;2022-09-09T13:59:31;18.80;66.20
60469;DHT22;46316;47.582;10.238;2022-09-09T14:01:57;18.70;64.60
60469;DHT22;46316;47.582;10.238;2022-09-09T14:04:23;18.60;65.10
60469;DHT22;46316;47.582;10.238;2022-09-09T14:06:49;18.70;65.90
60469;DHT22;46316;47.582;10.238;2022-09-09T14:09:17;18.60;68.50
60469;DHT22;46316;47.582;10.238;2022-09-09T14:11:44;18.60;67.50
60469;DHT22;46316;47.582;10.238;2022-09-09T14:14:10;18.50;66.80
60469;DHT22;46316;47.582;10.238;2022-09-09T14:16:36;18.30;68.50
60469;DHT22;46316;47.582;10.238;2022-09-09T14:19:03;18.10;69.10
60469;DHT22;46316;47.582;10.238;2022-09-09T14:21:29;18.00;70.10
60469;DHT22;46316;47.582;10.238;2022-09-09T14:23:54;17.90;70.80
60469;DHT22;46316;47.582;10.238;2022-09-09T14:26:24;17.80;69.80
60469;DHT22;46316;47.582;10.238;2022-09-09T14:28:50;17.70;69.20
60469;DHT22;46316;47.582;10.238;2022-09-09T14:31:17;17.60;69.70
60469;DHT22;46316;47.582;10.238;2022-09-09T14:33:44;17.40;70.70
60469;DHT22;46316;47.582;10.238;2022-09-09T14:36:10;17.30;71.50
60469;DHT22;46316;47.582;10.238;2022-09-09T14:38:37;17.10;71.70
60469;DHT22;46316;47.582;10.238;2022-09-09T14:41:15;17.10;71.40
60469;DHT22;46316;47.582;10.238;2022-09-09T14:43:45;17.20;71.90
60469;DHT22;46316;47.582;10.238;2022-09-09T14:46:14;17.10;71.90
60469;DHT22;46316;47.582;10.238;2022-09-09T14:48:40;17.00;72.10
60469;DHT22;46316;47.582;10.238;2022-09-09T14:51:12;16.90;71.30
60469;DHT22;46316;47.582;10.238;2022-09-09T14:53:38;16.90;72.10
60469;DHT22;46316;47.582;10.238;2022-09-09T14:56:18;17.10;73.00
60469;DHT22;46316;47.582;10.238;2022-09-09T14:58:44;17.30;70.70
60469;DHT22;46316;47.582;10.238;2022-09-09T15:01:12;17.40;71.00
60469;DHT22;46316;47.582;10.238;2022-09-09T15:03:42;17.40;70.90
60469;DHT22;46316;47.582;10.238;2022-09-09T15:06:13;17.40;71.10
60469;DHT22;46316;47.582;10.238;2022-09-09T15:08:41;17.50;69.50
60469;DHT22;46316;47.582;10.238;2022-09-09T15:11:07;17.40;69.30
60469;DHT22;46316;47.582;10.238;2022-09-09T15:13:34;17.40;69.20
60469;DHT22;46316;47.582;10.238;2022-09-09T15:16:09;17.30;69.80
60469;DHT22;46316;47.582;10.238;2022-09-09T15:18:35;17.30;70.20
60469;DHT22;46316;47.582;10.238;2022-09-09T15:21:02;17.30;70.00
60469;DHT22;46316;47.582;10.238;2022-09-09T15:23:35;17.30;69.70
60469;DHT22;46316;47.582;10.238;2022-09-09T15:26:01;17.40;68.30
60469;DHT22;46316;47.582;10.238;2022-09-09T15:28:27;17.40;68.70
60469;DHT22;46316;47.582;10.238;2022-09-09T15:30:53;17.30;69.80
60469;DHT22;46316;47.582;10.238;2022-09-09T15:33:20;17.20;69.10
60469;DHT22;46316;47.582;10.238;2022-09-09T15:35:47;17.10;69.00
60469;DHT22;46316;47.582;10.238;2022-09-09T15:38:12;17.00;69.50
60469;DHT22;46316;47.582;10.238;2022-09-09T15:40:39;17.00;70.50
60469;DHT22;46316;47.582;10.238;2022-09-09T15:43:05;16.90;70.50
60469;DHT22;46316;47.582;10.238;2022-09-09T15:45:32;16.90;70.90
60469;DHT22;46316;47.582;10.238;2022-09-09T15:48:02;16.90;71.60
60469;DHT22;46316;47.582;10.238;2022-09-09T15:50:28;16.90;71.80
60469;DHT22;46316;47.582;10.238;2022-09-09T15:52:56;16.90;71.40
60469;DHT22;46316;47.582;10.238;2022-09-09T15:55:22;16.90;71.50
60469;DHT22;46316;47.582;10.238;2022-09-09T15:57:51;17.00;71.30
60469;DHT22;46316;47.582;10.238;2022-09-09T16:00:18;17.00;71.30
60469;DHT22;46316;47.582;10.238;2022-09-09T16:02:44;17.10;71.60
60469;DHT22;46316;47.582;10.238;2022-09-09T16:05:09;17.20;71.90
60469;DHT22;46316;47.582;10.238;2022-09-09T16:07:35;17.30;71.50
60469;DHT22;46316;47.582;10.238;2022-09-09T16:10:01;17.30;71.80
60469;DHT22;46316;47.582;10.238;2022-09-09T16:12:27;17.40;71.50
60469;DHT22;46316;47.582;10.238;2022-09-09T16:14:52;17.30;71.40
60469;DHT22;46316;47.582;10.238;2022-09-09T16:17:19;17.30;71.30
60469;DHT22;46316;47.582;10.238;2022-09-09T16:19:46;17.30;71.50
60469;DHT22;46316;47.582;10.238;2022-09-09T16:22:11;17.20;71.60
60469;DHT22;46316;47.582;10.238;2022-09-09T16:24:37;17.10;71.90
60469;DHT22;46316;47.582;10.238;2022-09-09T16:27:03;16.90;72.90
60469;DHT22;46316;47.582;10.238;2022-09-09T16:29:29;16.80;73.70
60469;DHT22;46316;47.582;10.238;2022-09-09T16:31:55;16.70;73.70
60469;DHT22;46316;47.582;10.238;2022-09-09T16:34:21;16.70;73.50
60469;DHT22;46316;47.582;10.238;2022-09-09T16:36:48;16.60;76.00
60469;DHT22;46316;47.582;10.238;2022-09-09T16:39:17;16.60;76.60
60469;DHT22;46316;47.582;10.238;2022-09-09T16:41:44;16.50;76.10
60469;DHT22;46316;47.582;10.238;2022-09-09T16:44:12;16.60;73.70
60469;DHT22;46316;47.582;10.238;2022-09-09T16:46:40;16.50;73.80
60469;DHT22;46316;47.582;10.238;2022-09-09T16:49:09;16.40;74.90
60469;DHT22;46316;47.582;10.238;2022-09-09T16:51:38;16.40;76.00
60469;DHT22;46316;47.582;10.238;2022-09-09T16:54:06;16.40;77.20
60469;DHT22;46316;47.582;10.238;2022-09-09T16:56:38;16.30;77.60
60469;DHT22;46316;47.582;10.238;2022-09-09T16:59:08;16.40;77.30
60469;DHT22;46316;47.582;10.238;2022-09-09T17:01:35;16.30;75.40
60469;DHT22;46316;47.582;10.238;2022-09-09T17:04:06;16.30;77.60
60469;DHT22;46316;47.582;10.238;2022-09-09T17:06:33;16.30;78.80
60469;DHT22;46316;47.582;10.238;2022-09-09T17:09:09;16.20;79.00
60469;DHT22;46316;47.582;10.238;2022-09-09T17:11:36;16.00;79.90
60469;DHT22;46316;47.582;10.238;2022-09-09T17:14:03;15.90;80.10
60469;DHT22;46316;47.582;10.238;2022-09-09T17:16:31;15.90;81.00
60469;DHT22;46316;47.582;10.238;2022-09-09T17:18:57;15.70;81.70
60469;DHT22;46316;47.582;10.238;2022-09-09T17:21:27;15.60;81.40
60469;DHT22;46316;47.582;10.238;2022-09-09T17:23:54;15.60;82.20
60469;DHT22;46316;47.582;10.238;2022-09-09T17:26:22;15.50;82.80
60469;DHT22;46316;47.582;10.238;2022-09-09T17:28:48;15.50;82.90
60469;DHT22;46316;47.582;10.238;2022-09-09T17:31:16;15.40;82.90
60469;DHT22;46316;47.582;10.238;2022-09-09T17:33:47;15.40;83.20